createdAt,value
2022-08-05T00:00:46.650Z,98160.72
2022-08-05T00:01:53.208Z,98155.81
2022-08-05T00:03:02.188Z,98154.66
2022-08-05T00:04:09.108Z,98157.69
2022-08-05T00:06:03.096Z,98152.38
2022-08-05T00:06:39.357Z,98158.50
2022-08-05T00:07:59.779Z,98150.81
2022-08-05T00:09:12.920Z,98159.25
2022-08-05T00:10:17.659Z,98156.22
2022-08-05T00:11:30.191Z,98154.28
2022-08-05T00:12:56.053Z,98152.38
2022-08-05T00:13:59.932Z,98153.91
2022-08-05T00:15:13.952Z,98160.03
2022-08-05T00:16:36.343Z,98154.69
2022-08-05T00:17:48.716Z,98166.19
2022-08-05T00:18:53.716Z,98157.78
2022-08-05T00:20:02.769Z,98160.06
2022-08-05T00:21:08.326Z,98158.50
2022-08-05T00:22:11.773Z,98159.66
2022-08-05T00:23:14.792Z,98156.63
2022-08-05T00:24:24.110Z,98156.25
2022-08-05T00:25:27.804Z,98151.25
2022-08-05T00:26:51.801Z,98158.88
2022-08-05T00:27:55.331Z,98152.41
2022-08-05T00:28:58.288Z,98151.66
2022-08-05T00:30:03.432Z,98162.34
2022-08-05T00:31:07.818Z,98150.13
2022-08-05T00:32:14.967Z,98156.25
2022-08-05T00:34:55.197Z,98155.50
2022-08-05T00:35:04.825Z,98157.00
2022-08-05T00:36:16.185Z,98154.69
2022-08-05T00:37:35.591Z,98155.87
2022-08-05T00:38:54.897Z,98158.19
2022-08-05T00:40:02.877Z,98148.25
2022-08-05T00:41:11.710Z,98152.44
2022-08-05T00:42:32.076Z,98152.81
2022-08-05T00:43:46.980Z,98153.22
2022-08-05T00:44:50.372Z,98150.16
2022-08-05T00:45:54.289Z,98153.19
2022-08-05T00:47:04.197Z,98149.78
2022-08-05T00:48:09.503Z,98153.19
2022-08-05T00:49:14.034Z,98145.56
2022-08-05T00:50:17.609Z,98153.97
2022-08-05T00:51:50.292Z,98148.25
2022-08-05T00:52:45.559Z,98152.44
2022-08-05T00:54:02.781Z,98151.31
2022-08-05T00:55:06.393Z,98148.59
2022-08-05T00:56:09.935Z,98148.63
2022-08-05T00:57:21.280Z,98148.63
2022-08-05T00:58:27.529Z,98145.19
2022-08-05T00:59:44.161Z,98139.81
2022-08-05T01:00:50.353Z,98138.66
2022-08-05T01:01:54.553Z,98140.22
2022-08-05T01:02:59.745Z,98147.09
2022-08-05T01:04:03.878Z,98136.38
2022-08-05T01:05:16.842Z,98137.16
2022-08-05T01:06:20.080Z,98141.72
2022-08-05T01:07:31.620Z,98140.19
2022-08-05T01:08:43.344Z,98137.12
2022-08-05T01:09:55.467Z,98136.78
2022-08-05T01:11:04.917Z,98128.31
2022-08-05T01:12:18.601Z,98132.56
2022-08-05T01:13:58.356Z,98133.69
2022-08-05T01:15:35.840Z,98137.91
2022-08-05T01:16:51.018Z,98131.78
2022-08-05T01:18:03.714Z,98133.31
2022-08-05T01:19:36.735Z,98127.94
2022-08-05T01:21:00.735Z,98132.94
2022-08-05T01:22:41.521Z,98127.59
2022-08-05T01:24:13.032Z,98130.25
2022-08-05T01:25:40.668Z,98127.22
2022-08-05T01:27:17.953Z,98129.09
2022-08-05T01:28:41.031Z,98133.34
2022-08-05T01:29:53.043Z,98130.25
2022-08-05T01:31:02.961Z,98137.16
2022-08-05T01:32:12.518Z,98138.28
2022-08-05T01:33:26.403Z,98137.50
2022-08-05T01:34:35.849Z,98132.53
2022-08-05T01:35:52.147Z,98139.81
2022-08-05T01:37:06.145Z,98133.34
2022-08-05T01:38:24.846Z,98139.03
2022-08-05T01:39:45.664Z,98140.19
2022-08-05T01:40:52.418Z,98142.09
2022-08-05T01:41:58.262Z,98137.91
2022-08-05T01:43:03.963Z,98141.72
2022-08-05T01:44:09.953Z,98139.78
2022-08-05T01:45:17.256Z,98140.87
2022-08-05T01:46:43.092Z,98143.88
2022-08-05T01:47:47.835Z,98151.13
2022-08-05T01:48:53.793Z,98148.81
2022-08-05T01:50:02.077Z,98146.50
2022-08-05T01:51:12.408Z,98146.44
2022-08-05T01:52:19.212Z,98143.38
2022-08-05T01:53:54.500Z,98144.88
2022-08-05T01:54:53.393Z,98146.06
2022-08-05T01:56:00.143Z,98140.19
2022-08-05T01:58:12.357Z,98145.47
2022-08-05T01:58:40.664Z,98140.03
2022-08-05T01:59:53.242Z,98140.41
2022-08-05T02:00:58.326Z,98151.75
2022-08-05T02:02:03.060Z,98141.03
2022-08-05T02:03:41.468Z,98148.25
2022-08-05T02:04:49.646Z,98148.47
2022-08-05T02:05:59.805Z,98143.59
2022-08-05T02:07:04.168Z,98148.09
2022-08-05T02:08:11.536Z,98150.88
2022-08-05T02:09:14.663Z,98146.38
2022-08-05T02:10:19.262Z,98141.84
2022-08-05T02:11:55.827Z,98148.16
2022-08-05T02:13:13.028Z,98134.56
2022-08-05T02:14:32.004Z,98144.06
2022-08-05T02:15:39.045Z,98141.34
2022-08-05T02:16:53.065Z,98145.84
2022-08-05T02:18:32.446Z,98148.78
2022-08-05T02:19:28.642Z,98146.94
2022-08-05T02:20:48.924Z,98140.87
2022-08-05T02:22:02.029Z,98145.38
2022-08-05T02:23:11.047Z,98142.38
2022-08-05T02:24:19.612Z,98142.41
2022-08-05T02:25:32.967Z,98143.16
2022-08-05T02:26:54.547Z,98149.63
2022-08-05T02:28:00.529Z,98142.28
2022-08-05T02:29:04.191Z,98144.56
2022-08-05T02:30:10.991Z,98144.94
2022-08-05T02:31:24.800Z,98137.06
2022-08-05T02:32:31.599Z,98142.72
2022-08-05T02:33:42.307Z,98133.91
2022-08-05T02:34:46.593Z,98134.37
2022-08-05T02:36:01.293Z,98134.94
2022-08-05T02:37:08.809Z,98132.31
2022-08-05T02:38:19.495Z,98137.22
2022-08-05T02:39:25.347Z,98137.62
2022-08-05T02:40:31.935Z,98129.25
2022-08-05T02:41:36.404Z,98130.44
2022-08-05T02:43:00.787Z,98133.53
2022-08-05T02:44:12.161Z,98129.09
2022-08-05T02:45:19.481Z,98130.22
2022-08-05T02:46:29.453Z,98132.44
2022-08-05T02:47:58.488Z,98131.63
2022-08-05T02:48:58.788Z,98134.69
2022-08-05T02:50:06.518Z,98128.19
2022-08-05T02:51:10.551Z,98124.69
2022-08-05T02:52:29.918Z,98130.81
2022-08-05T02:53:39.438Z,98123.56
2022-08-05T02:54:52.159Z,98125.09
2022-08-05T02:56:00.331Z,98135.09
2022-08-05T02:58:11.822Z,98134.72
2022-08-05T02:58:38.363Z,98129.09
2022-08-05T02:59:50.639Z,98125.28
2022-08-05T03:00:56.801Z,98122.28
2022-08-05T03:02:01.099Z,98127.25
2022-08-05T03:03:10.144Z,98124.94
2022-08-05T03:04:15.737Z,98117.69
2022-08-05T03:05:21.659Z,98124.63
2022-08-05T03:06:54.114Z,98123.44
2022-08-05T03:08:08.605Z,98120.88
2022-08-05T03:09:15.858Z,98116.72
2022-08-05T03:10:30.165Z,98119.03
2022-08-05T03:11:56.068Z,98112.63
2022-08-05T03:14:03.356Z,98117.53
2022-08-05T03:15:12.640Z,98115.66
2022-08-05T03:16:16.257Z,98121.31
2022-08-05T03:17:23.428Z,98115.66
2022-08-05T03:18:29.993Z,98121.00
2022-08-05T03:19:36.133Z,98116.38
2022-08-05T03:20:44.632Z,98109.13
2022-08-05T03:21:52.013Z,98111.37
2022-08-05T03:22:57.590Z,98107.22
2022-08-05T03:24:05.412Z,98111.06
2022-08-05T03:25:32.552Z,98107.72
2022-08-05T03:26:35.708Z,98106.91
2022-08-05T03:27:39.380Z,98110.87
2022-08-05T03:29:01.961Z,98108.19
2022-08-05T03:30:09.090Z,98110.13
2022-08-05T03:31:18.283Z,98103.56
2022-08-05T03:32:39.774Z,98108.50
2022-08-05T03:33:52.652Z,98104.63
2022-08-05T03:34:55.956Z,98100.72
2022-08-05T03:35:59.718Z,98104.56
2022-08-05T03:37:03.683Z,98101.22
2022-08-05T03:38:06.880Z,98103.13
2022-08-05T03:39:13.123Z,98103.91
2022-08-05T03:40:24.458Z,98103.53
2022-08-05T03:41:38.616Z,98099.72
2022-08-05T03:42:51.736Z,98098.97
2022-08-05T03:44:08.730Z,98097.91
2022-08-05T03:45:21.672Z,98092.59
2022-08-05T03:46:26.667Z,98091.47
2022-08-05T03:47:35.128Z,98094.50
2022-08-05T03:48:39.098Z,98096.78
2022-08-05T03:49:51.669Z,98104.34
2022-08-05T03:52:48.930Z,98100.12
2022-08-05T03:55:49.977Z,98108.94
2022-08-05T03:56:00.987Z,98102.06
2022-08-05T03:56:31.851Z,98102.09
2022-08-05T03:57:42.653Z,98104.81
2022-08-05T03:58:48.280Z,98106.31
2022-08-05T04:00:09.228Z,98100.53
2022-08-05T04:01:16.542Z,98110.87
2022-08-05T04:02:37.618Z,98105.06
2022-08-05T04:04:08.811Z,98108.91
2022-08-05T04:05:11.305Z,98102.06
2022-08-05T04:06:16.120Z,98104.34
2022-08-05T04:07:19.304Z,98109.25
2022-08-05T04:08:36.239Z,98101.31
2022-08-05T04:09:53.512Z,98105.13
2022-08-05T04:10:58.856Z,98109.31
2022-08-05T04:12:03.020Z,98111.25
2022-08-05T04:13:07.871Z,98105.47
2022-08-05T04:14:10.934Z,98104.72
2022-08-05T04:15:24.501Z,98110.00
2022-08-05T04:16:32.234Z,98107.31
2022-08-05T04:17:55.865Z,98108.75
2022-08-05T04:18:58.767Z,98111.06
2022-08-05T04:20:04.233Z,98105.72
2022-08-05T04:21:10.886Z,98100.72
2022-08-05T04:22:14.761Z,98108.28
2022-08-05T04:23:57.152Z,98101.44
2022-08-05T04:24:52.645Z,98101.38
2022-08-05T04:26:00.481Z,98098.38
2022-08-05T04:27:04.039Z,98099.47
2022-08-05T04:28:11.253Z,98108.63
2022-08-05T04:29:15.664Z,98102.56
2022-08-05T04:30:18.447Z,98102.53
2022-08-05T04:31:21.683Z,98098.38
2022-08-05T04:32:31.101Z,98100.63
2022-08-05T04:34:18.782Z,98096.44
2022-08-05T04:34:59.193Z,98100.38
2022-08-05T04:36:16.247Z,98096.28
2022-08-05T04:38:00.549Z,98098.53
2022-08-05T04:38:50.981Z,98099.75
2022-08-05T04:39:55.739Z,98095.97
2022-08-05T04:40:58.844Z,98103.97
2022-08-05T04:42:01.891Z,98100.97
2022-08-05T04:43:06.923Z,98105.19
2022-08-05T04:44:14.382Z,98108.66
2022-08-05T04:45:31.143Z,98106.03
2022-08-05T04:46:42.559Z,98101.44
2022-08-05T04:47:49.904Z,98097.63
2022-08-05T04:48:52.616Z,98101.44
2022-08-05T04:50:01.897Z,98099.53
2022-08-05T04:51:11.059Z,98097.28
2022-08-05T04:52:15.160Z,98107.25
2022-08-05T04:53:19.184Z,98103.06
2022-08-05T04:54:27.214Z,98100.00
2022-08-05T04:56:11.881Z,98097.38
2022-08-05T04:56:59.641Z,98106.16
2022-08-05T04:58:02.677Z,98102.34
2022-08-05T04:59:14.042Z,98092.41
2022-08-05T05:00:27.108Z,98103.84
2022-08-05T05:01:33.768Z,98097.78
2022-08-05T05:02:53.223Z,98095.87
2022-08-05T05:03:55.959Z,98103.87
2022-08-05T05:05:01.672Z,98101.59
2022-08-05T05:06:40.440Z,98097.78
2022-08-05T05:07:29.624Z,98105.41
2022-08-05T05:08:37.641Z,98095.09
2022-08-05T05:09:46.060Z,98097.00
2022-08-05T05:10:56.510Z,98100.03
2022-08-05T05:12:03.085Z,98095.84
2022-08-05T05:13:06.233Z,98097.38
2022-08-05T05:14:10.746Z,98096.22
2022-08-05T05:15:56.452Z,98100.81
2022-08-05T05:16:48.278Z,98102.34
2022-08-05T05:17:56.989Z,98099.28
2022-08-05T05:19:19.545Z,98101.94
2022-08-05T05:20:28.248Z,98099.28
2022-08-05T05:21:33.011Z,98106.13
2022-08-05T05:22:36.284Z,98102.31
2022-08-05T05:24:03.695Z,98104.59
2022-08-05T05:25:16.814Z,98103.81
2022-08-05T05:26:28.850Z,98107.25
2022-08-05T05:27:44.969Z,98109.47
2022-08-05T05:28:48.924Z,98104.53
2022-08-05T05:30:04.327Z,98107.19
2022-08-05T05:31:11.479Z,98100.63
2022-08-05T05:32:15.598Z,98105.63
2022-08-05T05:33:23.254Z,98104.81
2022-08-05T05:34:27.340Z,98103.69
2022-08-05T05:35:39.538Z,98102.16
2022-08-05T05:36:47.070Z,98103.25
2022-08-05T05:37:59.715Z,98100.56
2022-08-05T05:39:04.958Z,98102.41
2022-08-05T05:40:15.776Z,98097.69
2022-08-05T05:41:18.632Z,98097.66
2022-08-05T05:42:21.577Z,98087.69
2022-08-05T05:43:57.293Z,98100.72
2022-08-05T05:44:47.662Z,98090.66
2022-08-05T05:45:50.567Z,98094.13
2022-08-05T05:46:53.369Z,98091.06
2022-08-05T05:48:06.534Z,98097.53
2022-08-05T05:49:22.607Z,98098.69
2022-08-05T05:50:26.559Z,98099.03
2022-08-05T05:51:29.367Z,98090.19
2022-08-05T05:52:52.397Z,98096.22
2022-08-05T05:53:59.560Z,98095.37
2022-08-05T05:55:07.482Z,98082.31
2022-08-05T05:56:16.886Z,98090.34
2022-08-05T05:57:51.999Z,98086.34
2022-08-05T05:58:55.856Z,98092.09
2022-08-05T05:59:58.663Z,98092.84
2022-08-05T06:01:13.265Z,98094.81
2022-08-05T06:02:32.626Z,98093.91
2022-08-05T06:04:00.855Z,98092.78
2022-08-05T06:05:10.415Z,98095.37
2022-08-05T06:06:19.782Z,98096.09
2022-08-05T06:07:41.570Z,98094.59
2022-08-05T06:08:45.144Z,98098.72
2022-08-05T06:10:01.599Z,98103.31
2022-08-05T06:11:07.928Z,98099.53
2022-08-05T06:12:12.113Z,98101.31
2022-08-05T06:13:15.172Z,98103.53
2022-08-05T06:14:17.972Z,98099.66
2022-08-05T06:15:23.794Z,98094.13
2022-08-05T06:16:33.073Z,98104.81
2022-08-05T06:17:53.574Z,98105.16
2022-08-05T06:19:00.228Z,98113.38
2022-08-05T06:20:06.103Z,98104.94
2022-08-05T06:21:21.690Z,98105.16
2022-08-05T06:22:27.160Z,98105.88
2022-08-05T06:23:43.684Z,98099.56
2022-08-05T06:24:48.361Z,98103.63
2022-08-05T06:26:12.376Z,98110.81
2022-08-05T06:27:17.276Z,98088.63
2022-08-05T06:28:38.262Z,98101.81
2022-08-05T06:29:52.097Z,98100.12
2022-08-05T06:31:11.283Z,98099.50
2022-08-05T06:32:28.918Z,98101.22
2022-08-05T06:33:33.395Z,98103.13
2022-08-05T06:34:56.518Z,98103.44
2022-08-05T06:36:03.874Z,98093.44
2022-08-05T06:37:12.861Z,98109.38
2022-08-05T06:38:15.941Z,98102.53
2022-08-05T06:39:19.027Z,98107.69
2022-08-05T06:40:28.017Z,98106.44
2022-08-05T06:41:35.587Z,98105.94
2022-08-05T06:42:44.325Z,98102.84
2022-08-05T06:43:59.153Z,98105.16
2022-08-05T06:45:08.333Z,98093.22
2022-08-05T06:46:11.939Z,98099.56
2022-08-05T06:47:30.105Z,98105.47
2022-08-05T06:48:56.698Z,98099.88
2022-08-05T06:50:05.408Z,98104.03
2022-08-05T06:51:09.944Z,98108.66
2022-08-05T06:52:37.221Z,98110.34
2022-08-05T06:53:41.470Z,98104.09
2022-08-05T06:54:56.733Z,98103.72
2022-08-05T06:56:00.742Z,98098.19
2022-08-05T06:57:58.162Z,98107.47
2022-08-05T06:58:35.113Z,98111.47
2022-08-05T06:59:42.243Z,98110.31
2022-08-05T07:00:51.979Z,98107.75
2022-08-05T07:01:54.815Z,98111.19
2022-08-05T07:03:00.713Z,98105.31
2022-08-05T07:04:03.948Z,98109.66
2022-08-05T07:05:15.308Z,98105.97
2022-08-05T07:06:23.510Z,98106.78
2022-08-05T07:07:43.114Z,98115.12
2022-08-05T07:08:47.487Z,98116.34
2022-08-05T07:09:55.393Z,98124.44
2022-08-05T07:11:05.465Z,98122.47
2022-08-05T07:12:36.806Z,98111.78
2022-08-05T07:14:00.001Z,98118.13
2022-08-05T07:15:34.502Z,98119.72
2022-08-05T07:17:58.189Z,98119.88
2022-08-05T07:18:17.675Z,98126.91
2022-08-05T07:20:53.333Z,98121.59
2022-08-05T07:22:00.073Z,98120.81
2022-08-05T07:23:04.487Z,98118.06
2022-08-05T07:25:22.525Z,98121.84
2022-08-05T07:26:39.456Z,98124.59
2022-08-05T07:27:57.687Z,98123.31
2022-08-05T07:29:04.032Z,98120.16
2022-08-05T07:30:27.873Z,98110.66
2022-08-05T07:31:41.109Z,98103.56
2022-08-05T07:32:53.728Z,98116.84
2022-08-05T07:33:56.530Z,98113.09
2022-08-05T07:36:02.439Z,98119.22
2022-08-05T07:36:26.640Z,98117.28
2022-08-05T07:37:37.514Z,98115.41
2022-08-05T07:38:44.153Z,98112.34
2022-08-05T07:40:26.088Z,98104.84
2022-08-05T07:42:08.866Z,98114.47
2022-08-05T07:42:36.393Z,98115.25
2022-08-05T07:43:39.342Z,98111.28
2022-08-05T07:44:42.210Z,98103.22
2022-08-05T07:45:57.518Z,98119.50
2022-08-05T07:47:01.290Z,98112.13
2022-08-05T07:49:00.869Z,98106.00
2022-08-05T07:49:54.333Z,98114.97
2022-08-05T07:50:57.838Z,98116.06
2022-08-05T07:52:02.547Z,98112.63
2022-08-05T07:53:06.306Z,98110.75
2022-08-05T07:54:10.597Z,98102.56
2022-08-05T07:55:44.619Z,98102.94
2022-08-05T07:57:01.932Z,98103.22
2022-08-05T07:58:03.110Z,98109.16
2022-08-05T07:59:08.545Z,98114.53
2022-08-05T08:00:14.695Z,98109.84
2022-08-05T08:01:18.168Z,98116.06
2022-08-05T08:02:31.226Z,98112.13
2022-08-05T08:03:51.374Z,98112.13
2022-08-05T08:04:54.699Z,98114.12
2022-08-05T08:05:57.600Z,98106.53
2022-08-05T08:07:02.041Z,98111.09
2022-08-05T08:08:12.425Z,98109.34
2022-08-05T08:09:15.570Z,98116.91
2022-08-05T08:10:20.495Z,98108.13
2022-08-05T08:11:27.620Z,98113.44
2022-08-05T08:12:49.305Z,98115.72
2022-08-05T08:14:00.750Z,98102.63
2022-08-05T08:15:04.659Z,98105.09
2022-08-05T08:16:34.643Z,98099.16
2022-08-05T08:17:35.676Z,98108.53
2022-08-05T08:18:40.435Z,98110.28
2022-08-05T08:20:23.422Z,98100.75
2022-08-05T08:21:09.745Z,98113.84
2022-08-05T08:22:19.051Z,98113.44
2022-08-05T08:24:01.004Z,98108.75
2022-08-05T08:24:51.863Z,98111.72
2022-08-05T08:26:00.503Z,98111.69
2022-08-05T08:27:07.190Z,98102.94
2022-08-05T08:28:18.532Z,98105.63
2022-08-05T08:30:05.915Z,98102.25
2022-08-05T08:30:56.120Z,98110.34
2022-08-05T08:32:00.143Z,98110.06
2022-08-05T08:33:09.214Z,98104.25
2022-08-05T08:34:30.706Z,98107.00
2022-08-05T08:35:41.414Z,98109.13
2022-08-05T08:36:47.379Z,98111.28
2022-08-05T08:37:56.340Z,98115.94
2022-08-05T08:38:59.367Z,98100.03
2022-08-05T08:40:05.528Z,98101.00
2022-08-05T08:41:14.033Z,98100.69
2022-08-05T08:42:34.063Z,98111.88
2022-08-05T08:45:22.114Z,98113.75
2022-08-05T08:45:22.832Z,98105.03
2022-08-05T08:46:32.423Z,98105.53
2022-08-05T08:48:05.785Z,98102.03
2022-08-05T08:49:17.300Z,98107.22
2022-08-05T08:50:33.057Z,98101.88
2022-08-05T08:52:03.647Z,98105.69
2022-08-05T08:53:12.595Z,98103.31
2022-08-05T08:54:16.628Z,98115.94
2022-08-05T08:55:31.951Z,98105.09
2022-08-05T08:56:47.820Z,98104.56
2022-08-05T08:57:58.300Z,98106.81
2022-08-05T08:59:01.736Z,98103.28
2022-08-05T09:00:13.038Z,98106.97
2022-08-05T09:01:19.815Z,98108.25
2022-08-05T09:02:26.816Z,98102.28
2022-08-05T09:03:40.500Z,98101.78
2022-08-05T09:05:16.546Z,98098.25
2022-08-05T09:06:15.812Z,98108.06
2022-08-05T09:07:28.974Z,98104.38
2022-08-05T09:08:42.334Z,98101.78
2022-08-05T09:09:47.224Z,98104.97
2022-08-05T09:10:53.464Z,98103.87
2022-08-05T09:12:02.255Z,98102.81
2022-08-05T09:13:15.890Z,98100.84
2022-08-05T09:14:56.649Z,98099.78
2022-08-05T09:15:41.769Z,98100.97
2022-08-05T09:16:48.733Z,98105.00
2022-08-05T09:17:52.920Z,98099.50
2022-08-05T09:18:56.628Z,98102.59
2022-08-05T09:20:05.079Z,98106.19
2022-08-05T09:21:11.718Z,98100.53
2022-08-05T09:22:32.005Z,98098.66
2022-08-05T09:23:43.550Z,98088.87
2022-08-05T09:25:24.069Z,98099.00
2022-08-05T09:26:30.114Z,98094.28
2022-08-05T09:28:05.720Z,98105.00
2022-08-05T09:29:09.667Z,98086.38
2022-08-05T09:30:17.328Z,98087.22
2022-08-05T09:32:41.064Z,98084.81
2022-08-05T09:32:51.421Z,98083.91
2022-08-05T09:34:01.612Z,98079.25
2022-08-05T09:35:26.533Z,98089.72
2022-08-05T09:36:55.945Z,98069.41
2022-08-05T09:38:16.282Z,98076.50
2022-08-05T09:39:23.548Z,98076.50
2022-08-05T09:40:38.478Z,98078.94
2022-08-05T09:42:04.770Z,98080.37
2022-08-05T09:43:10.422Z,98078.31
2022-08-05T09:44:56.805Z,98082.47
2022-08-05T09:46:06.124Z,98071.03
2022-08-05T09:47:15.974Z,98080.03
2022-08-05T09:48:27.020Z,98076.62
2022-08-05T09:49:31.245Z,98077.06
2022-08-05T09:51:00.555Z,98075.47
2022-08-05T09:52:18.683Z,98086.63
2022-08-05T09:53:25.987Z,98075.50
2022-08-05T09:55:56.991Z,98081.75
2022-08-05T09:56:35.124Z,98067.75
2022-08-05T09:57:45.413Z,98067.78
2022-08-05T09:59:08.604Z,98066.16
2022-08-05T10:00:19.254Z,98058.50
2022-08-05T10:01:32.314Z,98056.31
2022-08-05T10:02:38.635Z,98062.28
2022-08-05T10:03:59.194Z,98061.44
2022-08-05T10:05:08.646Z,98055.16
2022-08-05T10:06:15.640Z,98059.03
2022-08-05T10:07:20.281Z,98057.37
2022-08-05T10:08:38.200Z,98052.28
2022-08-05T10:10:14.662Z,98046.03
2022-08-05T10:11:18.199Z,98043.03
2022-08-05T10:12:33.443Z,98047.81
2022-08-05T10:13:47.883Z,98054.94
2022-08-05T10:14:54.326Z,98053.75
2022-08-05T10:15:58.595Z,98045.91
2022-08-05T10:17:37.723Z,98051.06
2022-08-05T10:18:39.527Z,98044.50
2022-08-05T10:20:03.902Z,98041.47
2022-08-05T10:21:11.754Z,98043.94
2022-08-05T10:22:30.320Z,98045.06
2022-08-05T10:23:59.529Z,98050.25
2022-08-05T10:25:01.803Z,98040.91
2022-08-05T10:26:07.360Z,98031.81
2022-08-05T10:27:16.995Z,98030.22
2022-08-05T10:28:29.740Z,98041.78
2022-08-05T10:30:41.520Z,98037.72
2022-08-05T10:32:53.302Z,98035.09
2022-08-05T10:32:55.165Z,98025.94
2022-08-05T10:33:54.065Z,98034.47
2022-08-05T10:35:00.659Z,98026.72
2022-08-05T10:36:05.228Z,98031.97
2022-08-05T10:37:12.980Z,98026.44
2022-08-05T10:38:19.185Z,98036.34
2022-08-05T10:40:03.331Z,98039.31
2022-08-05T10:41:05.118Z,98034.13
2022-08-05T10:42:32.298Z,98030.66
2022-08-05T10:43:46.077Z,98033.00
2022-08-05T10:44:54.963Z,98024.50
2022-08-05T10:46:06.303Z,98023.41
2022-08-05T10:47:26.040Z,98024.28
2022-08-05T10:48:52.992Z,98022.66
2022-08-05T10:50:33.286Z,98022.09
2022-08-05T10:51:28.386Z,98020.19
2022-08-05T10:52:49.817Z,98013.03
2022-08-05T10:54:05.777Z,98018.63
2022-08-05T10:55:25.248Z,98021.91
2022-08-05T10:56:37.338Z,98011.81
2022-08-05T10:57:44.798Z,98011.25
2022-08-05T10:58:53.982Z,98010.06
2022-08-05T11:00:29.868Z,98013.41
2022-08-05T11:01:55.623Z,98004.75
2022-08-05T11:03:25.508Z,98026.25
2022-08-05T11:04:30.992Z,98018.25
2022-08-05T11:05:36.051Z,98018.28
2022-08-05T11:07:04.655Z,98015.34
2022-08-05T11:08:36.699Z,98017.38
2022-08-05T11:10:04.078Z,98014.34
2022-08-05T11:11:53.485Z,98007.97
2022-08-05T11:12:58.107Z,98019.78
2022-08-05T11:14:04.218Z,98016.38
2022-08-05T11:15:20.321Z,98013.97
2022-08-05T11:16:47.422Z,98011.59
2022-08-05T11:18:00.087Z,97999.62
2022-08-05T11:20:10.691Z,97997.69
2022-08-05T11:20:57.401Z,98002.69
2022-08-05T11:22:42.382Z,98001.53
2022-08-05T11:24:05.470Z,97998.19
2022-08-05T11:26:05.212Z,98005.09
2022-08-05T11:27:51.179Z,98003.63
2022-08-05T11:28:55.026Z,97994.47
2022-08-05T11:30:01.035Z,98006.50
2022-08-05T11:31:09.753Z,97999.50
2022-08-05T11:32:29.901Z,97994.50
2022-08-05T11:33:46.090Z,98008.22
2022-08-05T11:34:54.375Z,97997.31
2022-08-05T11:36:07.392Z,98000.94
2022-08-05T11:38:30.516Z,97990.84
2022-08-05T11:38:46.105Z,97993.38
2022-08-05T11:40:00.376Z,97994.91
2022-08-05T11:41:34.637Z,98001.56
2022-08-05T11:42:40.232Z,97998.31
2022-08-05T11:44:05.173Z,97997.00
2022-08-05T11:45:27.012Z,98003.25
2022-08-05T11:47:10.297Z,98001.78
2022-08-05T11:48:11.480Z,97994.47
2022-08-05T11:49:16.169Z,97994.44
2022-08-05T11:50:19.607Z,98000.94
2022-08-05T11:51:44.320Z,98005.78
2022-08-05T11:52:49.466Z,98004.03
2022-08-05T11:53:54.179Z,97994.16
2022-08-05T11:55:07.674Z,98001.56
2022-08-05T11:56:16.980Z,97992.53
2022-08-05T11:57:25.466Z,98013.22
2022-08-05T11:58:40.813Z,97995.31
2022-08-05T11:59:50.222Z,97999.25
2022-08-05T12:01:08.497Z,97996.09
2022-08-05T12:02:30.524Z,97999.81
2022-08-05T12:03:57.247Z,97995.78
2022-08-05T12:05:06.936Z,97993.53
2022-08-05T12:06:12.456Z,98000.41
2022-08-05T12:07:17.111Z,97995.03
2022-08-05T12:08:54.838Z,97991.19
2022-08-05T12:10:09.248Z,97993.78
2022-08-05T12:11:22.184Z,97991.66
2022-08-05T12:12:29.400Z,97986.94
2022-08-05T12:13:48.612Z,97994.53
2022-08-05T12:14:52.652Z,97987.38
2022-08-05T12:15:59.414Z,97977.41
2022-08-05T12:18:02.720Z,97983.69
2022-08-05T12:18:38.856Z,97984.03
2022-08-05T12:20:25.400Z,97988.41
2022-08-05T12:21:15.239Z,97984.25
2022-08-05T12:22:26.667Z,97983.72
2022-08-05T12:23:29.980Z,97986.75
2022-08-05T12:24:41.229Z,97986.53
2022-08-05T12:25:57.843Z,97982.00
2022-08-05T12:27:09.498Z,97983.69
2022-08-05T12:28:53.467Z,97973.84
2022-08-05T12:30:07.074Z,97971.06
2022-08-05T12:31:10.999Z,97967.91
2022-08-05T12:32:26.365Z,97967.47
2022-08-05T12:33:36.526Z,97972.19
2022-08-05T12:34:40.509Z,97970.72
2022-08-05T12:35:43.349Z,97975.34
2022-08-05T12:36:47.933Z,97973.06
2022-08-05T12:37:53.349Z,97974.44
2022-08-05T12:39:03.008Z,97977.03
2022-08-05T12:40:26.561Z,97979.13
2022-08-05T12:41:43.620Z,97972.06
2022-08-05T12:42:46.863Z,97969.81
2022-08-05T12:43:54.530Z,97973.50
2022-08-05T12:45:08.749Z,97971.69
2022-08-05T12:46:26.418Z,97968.00
2022-08-05T12:47:36.113Z,97964.06
2022-08-05T12:48:40.137Z,97976.22
2022-08-05T12:50:03.165Z,97969.84
2022-08-05T12:52:10.129Z,97971.06
2022-08-05T12:52:41.774Z,97961.94
2022-08-05T12:53:55.721Z,97957.81
2022-08-05T12:54:58.969Z,97962.06
2022-08-05T12:56:05.975Z,97962.94
2022-08-05T12:58:50.805Z,97956.56
2022-08-05T12:59:21.128Z,97961.03
2022-08-05T13:02:00.103Z,97956.59
2022-08-05T13:02:07.345Z,97967.31
2022-08-05T13:03:14.843Z,97964.16
2022-08-05T13:04:20.997Z,97962.09
2022-08-05T13:05:26.076Z,97957.87
2022-08-05T13:06:50.746Z,97956.34
2022-08-05T13:07:59.822Z,97955.00
2022-08-05T13:09:12.648Z,97942.25
2022-08-05T13:10:20.107Z,97947.75
2022-08-05T13:12:01.871Z,97947.25
2022-08-05T13:12:58.124Z,97943.87
2022-08-05T13:14:06.784Z,97945.88
2022-08-05T13:15:16.429Z,97936.13
2022-08-05T13:16:27.926Z,97940.59
2022-08-05T13:17:42.257Z,97930.72
2022-08-05T13:18:58.616Z,97932.75
2022-08-05T13:20:11.433Z,97928.69
2022-08-05T13:21:14.541Z,97928.03
2022-08-05T13:22:29.340Z,97935.47
2022-08-05T13:23:33.852Z,97934.44
2022-08-05T13:24:57.439Z,97935.19
2022-08-05T13:26:01.949Z,97931.78
2022-08-05T13:27:05.374Z,97936.56
2022-08-05T13:28:14.733Z,97927.16
2022-08-05T13:29:37.360Z,97922.44
2022-08-05T13:30:41.041Z,97917.19
2022-08-05T13:32:04.255Z,97923.84
2022-08-05T13:33:07.716Z,97924.00
2022-08-05T13:34:21.360Z,97917.09
2022-08-05T13:35:43.338Z,97920.53
2022-08-05T13:36:49.768Z,97929.34
2022-08-05T13:37:55.347Z,97917.19
2022-08-05T13:38:59.288Z,97909.91
2022-08-05T13:40:16.383Z,97913.97
2022-08-05T13:41:25.792Z,97904.50
2022-08-05T13:42:41.469Z,97908.69
2022-08-05T13:43:54.996Z,97910.66
2022-08-05T13:44:58.924Z,97910.91
2022-08-05T13:46:01.939Z,97904.31
2022-08-05T13:47:09.037Z,97913.50
2022-08-05T13:48:57.769Z,97903.03
2022-08-05T13:49:35.512Z,97899.31
2022-08-05T13:50:38.465Z,97895.50
2022-08-05T13:51:46.701Z,97900.22
2022-08-05T13:52:50.139Z,97901.94
2022-08-05T13:53:52.933Z,97895.50
2022-08-05T13:55:01.139Z,97898.34
2022-08-05T13:56:04.832Z,97893.53
2022-08-05T13:57:21.748Z,97893.19
2022-08-05T13:58:30.818Z,97892.16
2022-08-05T13:59:34.673Z,97888.56
2022-08-05T14:00:38.686Z,97890.03
2022-08-05T14:01:56.291Z,97893.50
2022-08-05T14:03:01.443Z,97898.72
2022-08-05T14:04:26.705Z,97891.97
2022-08-05T14:06:04.876Z,97897.63
2022-08-05T14:07:12.082Z,97885.28
2022-08-05T14:08:21.384Z,97889.22
2022-08-05T14:09:30.809Z,97882.66
2022-08-05T14:10:35.058Z,97888.09
2022-08-05T14:12:00.688Z,97878.03
2022-08-05T14:13:04.230Z,97883.25
2022-08-05T14:14:08.792Z,97872.31
2022-08-05T14:16:07.798Z,97873.56
2022-08-05T14:16:36.914Z,97872.88
2022-08-05T14:17:45.290Z,97876.72
2022-08-05T14:18:50.988Z,97873.72